Time;durP1;ratioP1;P1;durP2;ratioP2;P2;SDS_P1;SDS_P2;PMS_P1;PMS_P2;Temp;Humidity;BMP_temperature;BMP_pressure;BME280_temperature;BME280_humidity;BME280_pressure;Samples;Min_cycle;Max_cycle;Signal;HPM_P1;HPM_P2
2023/06/11 00:01:24;;;;;;;9.40;7.20;;;20.00;72.50;;;;;;4993683;28;88466;-76
2023/06/11 00:03:53;;;;;;;10.75;7.88;;;19.90;71.90;;;;;;4993816;28;87688;-75
2023/06/11 00:06:21;;;;;;;8.77;7.50;;;19.90;71.70;;;;;;4992617;28;89177;-75
2023/06/11 00:08:51;;;;;;;13.77;8.07;;;19.90;72.40;;;;;;4992302;28;88418;-75
2023/06/11 00:11:17;;;;;;;10.85;7.65;;;19.80;72.30;;;;;;4992578;28;88359;-75
2023/06/11 00:13:43;;;;;;;11.05;8.00;;;19.90;72.40;;;;;;4992688;28;87728;-75
2023/06/11 00:16:11;;;;;;;11.10;7.65;;;19.80;72.20;;;;;;4991604;28;88794;-76
2023/06/11 00:18:40;;;;;;;9.23;7.78;;;19.80;73.50;;;;;;4988620;28;87690;-75
2023/06/11 00:21:09;;;;;;;10.25;7.55;;;19.70;72.80;;;;;;4988247;28;87684;-75
2023/06/11 00:23:36;;;;;;;10.40;7.40;;;19.70;72.70;;;;;;4989201;28;87648;-75
2023/06/11 00:26:05;;;;;;;12.18;7.85;;;19.70;73.00;;;;;;4989222;28;88046;-75
2023/06/11 00:28:31;;;;;;;11.07;8.73;;;19.70;72.80;;;;;;4989525;28;88493;-75
2023/06/11 00:30:56;;;;;;;12.80;7.95;;;19.60;72.90;;;;;;4990198;28;87719;-75
2023/06/11 00:33:22;;;;;;;10.52;7.65;;;19.60;73.10;;;;;;4989746;28;88029;-76
2023/06/11 00:35:47;;;;;;;10.13;8.23;;;19.50;73.80;;;;;;4962131;28;93118;-76
2023/06/11 00:38:13;;;;;;;12.10;9.00;;;19.50;73.80;;;;;;4989205;28;88794;-75
2023/06/11 00:40:39;;;;;;;10.00;8.18;;;19.50;73.80;;;;;;4988995;28;87538;-76
2023/06/11 00:43:07;;;;;;;11.15;8.13;;;19.40;73.60;;;;;;4961188;28;89007;-76
2023/06/11 00:45:35;;;;;;;12.05;8.43;;;19.40;73.90;;;;;;4988746;28;88689;-76
2023/06/11 00:48:01;;;;;;;13.27;8.40;;;19.40;73.80;;;;;;4989029;28;87875;-76
2023/06/11 00:50:28;;;;;;;13.73;8.63;;;19.40;73.70;;;;;;4988989;28;87589;-75
2023/06/11 00:52:54;;;;;;;8.93;7.95;;;19.40;74.00;;;;;;4980636;28;87242;-77
2023/06/11 00:55:21;;;;;;;14.38;8.65;;;19.30;74.00;;;;;;4989312;28;88508;-76
2023/06/11 00:57:48;;;;;;;12.30;8.02;;;19.30;74.70;;;;;;4988839;28;88113;-76
2023/06/11 01:00:14;;;;;;;10.13;8.00;;;19.30;75.10;;;;;;4990263;28;88685;-76
2023/06/11 01:02:57;;;;;;;9.70;8.40;;;19.20;74.90;;;;;;4990464;28;87536;-76
2023/06/11 01:05:24;;;;;;;8.93;7.83;;;19.20;75.00;;;;;;4989886;28;88688;-75
2023/06/11 01:07:55;;;;;;;9.23;8.10;;;19.10;74.80;;;;;;4991076;28;88639;-75
2023/06/11 01:10:22;;;;;;;13.43;8.38;;;19.10;74.60;;;;;;4991759;28;87461;-75
2023/06/11 01:12:48;;;;;;;11.18;8.65;;;19.00;76.70;;;;;;4992141;28;87991;-75
2023/06/11 01:15:14;;;;;;;10.50;8.20;;;19.00;76.50;;;;;;4991883;28;87898;-76
2023/06/11 01:18:03;;;;;;;10.35;8.52;;;18.90;77.40;;;;;;4991165;28;89389;-76
2023/06/11 01:20:38;;;;;;;16.75;9.68;;;18.80;77.30;;;;;;4991086;28;87768;-76
2023/06/11 01:23:41;;;;;;;10.45;7.95;;;18.80;77.10;;;;;;4991387;28;88569;-76
2023/06/11 01:26:29;;;;;;;12.17;9.30;;;18.80;76.20;;;;;;4990228;28;94300;-75
2023/06/11 01:28:58;;;;;;;13.10;8.98;;;18.70;78.30;;;;;;4973026;28;92204;-76
2023/06/11 01:31:29;;;;;;;11.88;9.50;;;18.60;79.20;;;;;;4991461;28;87681;-76
2023/06/11 01:33:56;;;;;;;13.50;8.13;;;18.60;78.50;;;;;;4991494;28;87970;-75
2023/06/11 01:36:24;;;;;;;9.77;8.65;;;18.50;78.80;;;;;;4989613;28;89047;-76
2023/06/11 01:38:51;;;;;;;11.35;8.95;;;18.50;79.60;;;;;;4991206;28;88923;-75
2023/06/11 01:41:16;;;;;;;16.00;9.32;;;18.40;78.80;;;;;;4991565;28;87430;-75
2023/06/11 01:43:42;;;;;;;12.18;8.35;;;18.40;78.40;;;;;;4991817;28;87521;-76
2023/06/11 01:46:08;;;;;;;12.20;8.48;;;18.30;79.00;;;;;;4991653;28;88241;-75
2023/06/11 01:48:35;;;;;;;13.23;9.23;;;18.30;79.30;;;;;;4991520;28;88550;-74
2023/06/11 01:51:01;;;;;;;13.57;8.70;;;18.30;78.10;;;;;;4991431;28;88497;-75
2023/06/11 01:53:26;;;;;;;12.93;9.05;;;18.30;78.20;;;;;;4991055;28;87545;-75
2023/06/11 01:55:54;;;;;;;11.95;9.32;;;18.20;79.20;;;;;;4991059;28;88905;-75
2023/06/11 01:58:20;;;;;;;10.38;9.18;;;18.20;79.40;;;;;;4989797;28;87839;-76
2023/06/11 02:00:47;;;;;;;11.05;8.82;;;18.20;78.80;;;;;;4990886;28;87737;-76
2023/06/11 02:03:15;;;;;;;14.40;9.32;;;18.20;79.00;;;;;;4989572;28;87584;-75
2023/06/11 02:05:42;;;;;;;12.95;8.77;;;18.20;78.60;;;;;;4991124;28;87644;-76
2023/06/11 02:08:07;;;;;;;11.15;9.05;;;18.10;78.80;;;;;;4991481;28;87611;-76
2023/06/11 02:10:33;;;;;;;12.02;9.07;;;18.10;79.80;;;;;;4991703;28;87516;-75
2023/06/11 02:12:59;;;;;;;14.73;9.75;;;18.10;79.40;;;;;;4991527;28;87634;-76
2023/06/11 02:15:25;;;;;;;11.40;9.60;;;18.00;79.20;;;;;;4991063;28;89112;-76
2023/06/11 02:17:51;;;;;;;13.07;9.50;;;18.00;81.30;;;;;;4991197;28;90411;-75
2023/06/11 02:20:16;;;;;;;14.63;9.05;;;18.00;80.00;;;;;;4991576;28;87499;-76
2023/06/11 02:22:42;;;;;;;14.23;9.55;;;17.90;80.50;;;;;;4990978;28;87828;-75
2023/06/11 02:25:08;;;;;;;11.35;9.73;;;17.90;80.30;;;;;;4990822;28;87837;-75
2023/06/11 02:27:34;;;;;;;12.55;9.57;;;17.90;80.00;;;;;;4990675;28;87478;-76
2023/06/11 02:30:00;;;;;;;14.93;9.32;;;17.90;80.30;;;;;;4991329;28;87637;-75
2023/06/11 02:32:26;;;;;;;10.88;9.63;;;17.90;80.00;;;;;;4991602;28;86933;-75
2023/06/11 02:34:51;;;;;;;12.45;9.13;;;17.80;81.40;;;;;;4990584;28;88721;-75
2023/06/11 02:37:17;;;;;;;10.75;9.00;;;17.80;80.40;;;;;;4990643;28;88198;-75
2023/06/11 02:39:43;;;;;;;13.73;9.10;;;17.80;80.20;;;;;;4991687;28;88678;-76
2023/06/11 02:42:08;;;;;;;9.95;8.98;;;17.70;80.50;;;;;;4991203;28;87911;-76
2023/06/11 02:44:34;;;;;;;11.25;9.35;;;17.70;80.90;;;;;;4972229;28;90338;-75
2023/06/11 02:47:00;;;;;;;11.40;9.68;;;17.70;80.70;;;;;;4990214;28;89363;-76
2023/06/11 02:49:26;;;;;;;12.20;9.68;;;17.70;80.60;;;;;;4991324;28;88077;-75
2023/06/11 02:51:52;;;;;;;14.60;9.93;;;17.70;81.20;;;;;;4989456;28;87916;-76
2023/06/11 02:54:17;;;;;;;16.38;10.60;;;17.60;81.00;;;;;;4990177;28;88694;-75
2023/06/11 02:56:43;;;;;;;17.63;9.60;;;17.60;81.30;;;;;;4989815;28;87350;-76
2023/06/11 02:59:09;;;;;;;12.77;9.70;;;17.60;81.00;;;;;;4990456;28;87740;-76
2023/06/11 03:01:35;;;;;;;12.27;9.73;;;17.60;82.70;;;;;;4990904;28;87090;-75
2023/06/11 03:04:00;;;;;;;11.27;9.75;;;17.50;82.00;;;;;;4989655;28;89126;-76
2023/06/11 03:06:26;;;;;;;12.00;9.85;;;17.40;81.70;;;;;;4991146;28;88939;-75
2023/06/11 03:08:53;;;;;;;13.32;9.90;;;17.40;82.10;;;;;;4991019;28;87988;-76
2023/06/11 03:11:19;;;;;;;12.00;10.18;;;17.30;83.30;;;;;;4990985;28;88009;-75
2023/06/11 03:13:44;;;;;;;12.27;10.20;;;17.30;82.80;;;;;;4991487;28;88234;-75
2023/06/11 03:16:10;;;;;;;13.05;10.30;;;17.30;82.50;;;;;;4993536;28;87680;-76
2023/06/11 03:18:36;;;;;;;12.98;9.80;;;17.30;83.60;;;;;;4993803;28;87836;-76
2023/06/11 03:21:02;;;;;;;11.20;9.68;;;17.20;83.70;;;;;;4995081;28;87623;-76
2023/06/11 03:23:27;;;;;;;12.00;10.68;;;17.10;83.10;;;;;;4994333;28;88674;-75
2023/06/11 03:25:53;;;;;;;15.30;10.27;;;17.10;84.60;;;;;;4992063;28;88561;-75
2023/06/11 03:28:19;;;;;;;11.93;10.48;;;17.10;84.70;;;;;;4992709;28;88527;-76
2023/06/11 03:30:44;;;;;;;12.13;10.00;;;17.00;84.40;;;;;;4993310;28;88144;-75
2023/06/11 03:33:10;;;;;;;14.45;10.75;;;16.90;84.90;;;;;;4993312;28;88573;-76
2023/06/11 03:35:36;;;;;;;11.38;10.18;;;16.90;85.50;;;;;;4993370;28;88112;-76
2023/06/11 03:38:01;;;;;;;12.63;10.68;;;16.90;85.70;;;;;;4993791;28;87212;-76
2023/06/11 03:40:28;;;;;;;12.55;10.35;;;16.90;86.70;;;;;;4965128;28;88940;-75
2023/06/11 03:42:53;;;;;;;13.57;10.88;;;16.80;85.60;;;;;;4992774;28;87607;-75
2023/06/11 03:45:19;;;;;;;12.15;10.00;;;16.70;85.80;;;;;;4993934;28;87529;-75
2023/06/11 03:47:44;;;;;;;14.45;9.82;;;16.80;86.30;;;;;;4993311;28;87977;-75
2023/06/11 03:50:10;;;;;;;12.32;10.80;;;16.80;86.20;;;;;;4993556;28;87222;-76
2023/06/11 03:52:36;;;;;;;12.20;10.55;;;16.70;86.70;;;;;;4992456;28;88930;-75
2023/06/11 03:55:02;;;;;;;15.10;10.43;;;16.80;86.60;;;;;;4993240;28;88946;-75
2023/06/11 03:57:27;;;;;;;13.38;10.23;;;16.70;86.20;;;;;;4992415;28;87474;-75
2023/06/11 03:59:53;;;;;;;12.95;10.23;;;16.70;86.80;;;;;;4992659;28;87978;-75
2023/06/11 04:02:19;;;;;;;12.95;11.05;;;16.70;86.40;;;;;;4992831;28;88370;-76
2023/06/11 04:04:45;;;;;;;14.48;11.52;;;16.80;88.60;;;;;;4991646;28;89695;-76
2023/06/11 04:07:11;;;;;;;12.50;10.90;;;16.70;86.80;;;;;;4993149;28;87759;-75
2023/06/11 04:09:37;;;;;;;12.60;11.00;;;16.70;88.00;;;;;;4992116;28;87207;-75
2023/06/11 04:12:02;;;;;;;11.48;10.27;;;16.70;88.20;;;;;;4991902;28;87870;-76
2023/06/11 04:14:28;;;;;;;11.20;9.93;;;16.70;87.30;;;;;;4992430;28;87942;-75
2023/06/11 04:16:54;;;;;;;14.18;11.70;;;16.70;85.70;;;;;;4992326;28;88443;-75
2023/06/11 04:19:19;;;;;;;14.52;11.02;;;16.80;87.30;;;;;;4992988;28;87782;-75
2023/06/11 04:21:45;;;;;;;11.90;10.70;;;16.80;86.20;;;;;;4992321;28;88667;-76
2023/06/11 04:24:10;;;;;;;16.75;11.70;;;16.90;88.70;;;;;;4992302;28;88647;-76
2023/06/11 04:26:36;;;;;;;12.65;11.32;;;16.90;87.50;;;;;;4991313;28;88391;-76
2023/06/11 04:29:03;;;;;;;15.38;10.90;;;16.90;87.50;;;;;;4991292;28;87791;-75
2023/06/11 04:31:29;;;;;;;13.75;10.82;;;17.00;87.50;;;;;;4992347;28;88180;-76
2023/06/11 04:34:02;;;;;;;16.40;10.95;;;17.10;86.50;;;;;;4992671;28;88970;-76
2023/06/11 04:36:29;;;;;;;12.75;10.60;;;17.10;87.00;;;;;;4991554;28;87168;-75
2023/06/11 04:38:55;;;;;;;13.13;11.77;;;17.20;88.00;;;;;;4991872;28;87985;-75
2023/06/11 04:41:23;;;;;;;14.00;10.85;;;17.30;87.60;;;;;;4990506;28;89425;-74
2023/06/11 04:43:49;;;;;;;12.80;11.32;;;17.30;87.80;;;;;;4991526;28;88235;-76
2023/06/11 04:46:15;;;;;;;16.90;10.90;;;17.40;87.00;;;;;;4992705;28;87419;-75
2023/06/11 04:48:41;;;;;;;12.63;10.35;;;17.50;87.60;;;;;;4992255;28;87794;-74
2023/06/11 04:51:07;;;;;;;14.23;11.57;;;17.50;87.50;;;;;;4992427;28;88549;-76
2023/06/11 04:53:37;;;;;;;17.77;11.77;;;17.60;87.60;;;;;;4991933;28;87448;-76
2023/06/11 04:56:02;;;;;;;13.48;11.45;;;17.70;87.20;;;;;;4992760;28;87682;-75
2023/06/11 04:58:30;;;;;;;16.25;11.88;;;17.80;87.10;;;;;;4992464;28;87642;-75
2023/06/11 05:00:56;;;;;;;16.23;11.75;;;17.90;87.50;;;;;;4991554;28;88160;-76
2023/06/11 05:03:36;;;;;;;14.63;11.00;;;18.00;87.30;;;;;;4990950;28;89398;-75
2023/06/11 05:06:02;;;;;;;17.17;10.73;;;18.10;87.70;;;;;;4990429;28;88618;-75
2023/06/11 05:08:28;;;;;;;18.33;11.80;;;18.20;87.50;;;;;;4990617;28;88229;-75
2023/06/11 05:10:56;;;;;;;14.82;11.18;;;18.30;87.10;;;;;;4991235;28;88573;-75
2023/06/11 05:13:24;;;;;;;18.73;12.32;;;18.40;85.90;;;;;;4991128;28;87861;-76
2023/06/11 05:15:55;;;;;;;12.20;10.75;;;18.50;86.10;;;;;;4990380;28;87463;-74
2023/06/11 05:18:21;;;;;;;16.65;11.20;;;18.60;85.60;;;;;;4990293;28;87832;-75
2023/06/11 05:20:50;;;;;;;11.77;10.32;;;18.70;85.20;;;;;;4991147;28;88630;-74
2023/06/11 05:23:16;;;;;;;12.45;10.05;;;18.80;84.40;;;;;;4991113;28;88745;-75
2023/06/11 05:25:49;;;;;;;14.77;10.93;;;18.90;84.30;;;;;;4991787;28;87886;-76
2023/06/11 05:28:16;;;;;;;13.30;11.23;;;19.10;84.00;;;;;;4990878;28;87751;-75
2023/06/11 05:30:45;;;;;;;14.68;10.43;;;19.20;84.60;;;;;;4990091;28;89801;-76
2023/06/11 05:33:11;;;;;;;12.65;10.32;;;19.30;83.90;;;;;;4990946;28;89301;-76
2023/06/11 05:35:37;;;;;;;13.00;10.05;;;19.40;84.00;;;;;;4990123;28;87369;-76
2023/06/11 05:38:03;;;;;;;13.75;10.73;;;19.50;83.20;;;;;;4989279;28;87807;-74
2023/06/11 05:40:30;;;;;;;13.15;10.32;;;19.60;83.20;;;;;;4989389;28;88178;-76
2023/06/11 05:42:56;;;;;;;14.98;10.35;;;19.70;83.40;;;;;;4990743;28;88992;-76
2023/06/11 05:45:21;;;;;;;12.52;9.63;;;19.80;83.40;;;;;;4991195;28;87670;-75
2023/06/11 05:47:47;;;;;;;13.30;9.90;;;20.00;83.10;;;;;;4992035;28;87400;-76
2023/06/11 05:50:13;;;;;;;16.15;10.32;;;20.10;82.40;;;;;;4991061;28;88989;-74
2023/06/11 05:52:38;;;;;;;11.70;9.57;;;20.20;81.50;;;;;;4990948;28;88407;-76
2023/06/11 05:55:04;;;;;;;13.50;9.73;;;20.30;81.30;;;;;;4990777;28;88848;-75
2023/06/11 05:57:30;;;;;;;12.55;9.63;;;20.50;81.20;;;;;;4991060;28;89139;-76
2023/06/11 05:59:56;;;;;;;11.43;9.63;;;20.60;80.50;;;;;;4990501;28;87555;-75
2023/06/11 06:02:21;;;;;;;12.95;9.25;;;20.70;80.20;;;;;;4990567;28;88914;-75
2023/06/11 06:04:48;;;;;;;12.00;8.95;;;20.90;79.30;;;;;;4991052;28;87452;-76
2023/06/11 06:07:15;;;;;;;11.05;9.55;;;21.00;78.00;;;;;;4991108;28;88201;-75
2023/06/11 06:09:41;;;;;;;9.05;8.15;;;21.10;78.50;;;;;;4990790;28;89680;-75
2023/06/11 06:12:07;;;;;;;15.18;9.05;;;21.20;78.10;;;;;;4990188;28;87064;-75
2023/06/11 06:14:33;;;;;;;9.85;7.57;;;21.40;78.20;;;;;;4990678;28;87283;-75
2023/06/11 06:16:58;;;;;;;9.57;8.25;;;21.50;77.30;;;;;;4991046;28;87542;-75
2023/06/11 06:19:24;;;;;;;9.20;8.02;;;21.70;77.60;;;;;;4962127;28;92480;-76
2023/06/11 06:21:50;;;;;;;11.85;8.95;;;21.80;76.60;;;;;;4991144;28;87890;-75
2023/06/11 06:24:15;;;;;;;10.80;9.70;;;21.90;77.20;;;;;;4991122;28;87637;-75
2023/06/11 06:26:41;;;;;;;12.02;8.65;;;22.00;76.30;;;;;;4965387;28;88926;-76
2023/06/11 06:29:08;;;;;;;9.20;8.30;;;22.20;75.30;;;;;;4990601;28;88219;-77
2023/06/11 06:31:36;;;;;;;10.77;7.85;;;22.30;75.60;;;;;;4990897;28;87919;-75
2023/06/11 06:34:02;;;;;;;9.38;8.18;;;22.50;75.10;;;;;;4990169;28;88356;-74
2023/06/11 06:36:28;;;;;;;14.43;8.98;;;22.70;74.60;;;;;;4989697;28;88592;-76
2023/06/11 06:38:54;;;;;;;13.65;7.97;;;22.80;72.90;;;;;;4989425;28;88383;-76
2023/06/11 06:41:19;;;;;;;12.20;8.20;;;22.90;73.20;;;;;;4980555;28;88611;-75
2023/06/11 06:43:45;;;;;;;9.90;8.40;;;23.00;73.60;;;;;;4990925;28;88894;-75
2023/06/11 06:46:11;;;;;;;10.13;8.27;;;23.20;74.00;;;;;;4962256;28;89199;-76
2023/06/11 06:48:36;;;;;;;9.35;7.78;;;23.30;73.10;;;;;;4993039;28;88808;-76
2023/06/11 06:51:02;;;;;;;8.70;6.95;;;23.50;72.90;;;;;;4994061;28;88081;-75
2023/06/11 06:53:28;;;;;;;11.82;8.25;;;23.70;73.10;;;;;;4993931;28;87570;-75
2023/06/11 06:55:54;;;;;;;8.57;7.68;;;23.90;71.60;;;;;;4993828;28;87408;-75
2023/06/11 06:58:19;;;;;;;9.93;7.53;;;24.00;71.00;;;;;;4993299;28;88307;-75
2023/06/11 07:00:45;;;;;;;8.20;7.40;;;24.20;71.00;;;;;;4993828;28;87902;-75
2023/06/11 07:03:14;;;;;;;8.77;7.25;;;24.30;70.10;;;;;;4993409;28;87777;-76
2023/06/11 07:05:43;;;;;;;8.98;7.50;;;24.40;69.20;;;;;;4998359;28;87049;-78
2023/06/11 07:08:12;;;;;;;8.40;7.60;;;24.60;69.00;;;;;;4997491;28;88722;-79
2023/06/11 07:10:40;;;;;;;8.38;6.72;;;24.70;68.50;;;;;;4998799;28;89010;-79
2023/06/11 07:13:10;;;;;;;8.20;6.93;;;24.90;68.90;;;;;;4998778;28;87930;-80
2023/06/11 07:15:35;;;;;;;11.07;6.93;;;25.10;66.60;;;;;;4999003;28;88303;-79
2023/06/11 07:18:01;;;;;;;9.10;6.50;;;25.20;67.70;;;;;;4998934;28;89355;-79
2023/06/11 07:20:26;;;;;;;6.88;6.18;;;25.40;67.90;;;;;;4998583;28;88170;-79
2023/06/11 07:22:52;;;;;;;6.80;6.20;;;25.60;66.40;;;;;;4998842;28;87879;-80
2023/06/11 07:25:18;;;;;;;11.38;6.78;;;25.70;66.10;;;;;;4971794;28;89624;-80
2023/06/11 07:27:43;;;;;;;8.68;6.28;;;25.90;65.20;;;;;;4997568;28;89272;-80
2023/06/11 07:30:10;;;;;;;7.97;6.43;;;26.00;65.20;;;;;;4996913;28;89788;-79
2023/06/11 07:32:36;;;;;;;7.53;6.72;;;26.20;63.30;;;;;;4998715;28;88515;-79
2023/06/11 07:35:02;;;;;;;7.50;6.50;;;26.40;64.60;;;;;;4998257;28;87073;-79
2023/06/11 07:37:27;;;;;;;5.90;5.32;;;26.50;63.40;;;;;;4999167;28;89631;-79
2023/06/11 07:39:53;;;;;;;10.05;6.18;;;26.60;62.60;;;;;;4998485;28;89083;-79
2023/06/11 07:42:18;;;;;;;6.55;5.95;;;26.70;63.00;;;;;;4980664;28;87827;-79
2023/06/11 07:44:44;;;;;;;9.32;6.22;;;26.90;61.50;;;;;;4998381;28;87678;-79
2023/06/11 07:47:10;;;;;;;10.25;6.32;;;27.00;60.60;;;;;;4997306;28;90210;-79
2023/06/11 07:49:35;;;;;;;7.13;6.40;;;27.10;62.00;;;;;;4998947;28;86824;-79
2023/06/11 07:52:01;;;;;;;7.22;5.60;;;27.30;61.70;;;;;;4998914;28;87674;-79
2023/06/11 07:54:27;;;;;;;8.98;6.28;;;27.40;60.40;;;;;;4998433;28;87618;-79
2023/06/11 07:56:53;;;;;;;7.75;5.60;;;27.60;62.30;;;;;;4995808;28;89115;-79
2023/06/11 07:59:18;;;;;;;7.03;6.32;;;27.90;61.60;;;;;;4996660;28;89614;-79
2023/06/11 08:01:44;;;;;;;8.88;5.68;;;28.10;60.90;;;;;;4998311;28;87646;-78
2023/06/11 08:04:10;;;;;;;11.00;6.07;;;28.30;59.90;;;;;;4998483;28;87529;-79
2023/06/11 08:06:36;;;;;;;7.78;5.70;;;28.50;60.40;;;;;;4997512;28;88500;-77
2023/06/11 08:09:01;;;;;;;6.72;6.10;;;28.70;60.50;;;;;;4997614;28;89351;-80
2023/06/11 08:11:27;;;;;;;7.10;5.22;;;28.80;59.10;;;;;;4989551;28;87268;-82
2023/06/11 08:13:53;;;;;;;6.82;5.40;;;29.00;59.60;;;;;;4999020;28;87352;-82
2023/06/11 08:16:18;;;;;;;8.65;5.50;;;29.20;59.30;;;;;;4971737;28;90648;-81
2023/06/11 08:18:44;;;;;;;7.22;5.78;;;29.40;59.00;;;;;;4985831;28;91166;-81
2023/06/11 08:21:10;;;;;;;8.32;6.07;;;29.50;59.10;;;;;;4996631;28;88757;-81
2023/06/11 08:23:36;;;;;;;7.63;5.53;;;29.60;55.00;;;;;;4987976;28;90329;-81
2023/06/11 08:26:02;;;;;;;7.75;5.47;;;29.70;57.70;;;;;;4971152;28;91211;-81
2023/06/11 08:28:28;;;;;;;6.20;5.60;;;29.90;57.10;;;;;;4997888;28;89300;-80
2023/06/11 08:30:55;;;;;;;6.78;6.07;;;30.00;56.40;;;;;;4998281;28;87666;-81
2023/06/11 08:33:21;;;;;;;7.72;4.88;;;30.10;55.40;;;;;;4998135;28;87104;-81
2023/06/11 08:35:47;;;;;;;5.68;5.15;;;30.10;56.80;;;;;;4979851;28;90423;-83
2023/06/11 08:38:13;;;;;;;6.88;5.30;;;30.20;56.00;;;;;;4997098;28;91645;-78
2023/06/11 08:40:41;;;;;;;5.57;4.80;;;30.40;55.50;;;;;;4997422;28;87471;-82
2023/06/11 08:43:10;;;;;;;5.55;5.05;;;30.50;55.10;;;;;;4997709;28;87128;-80
2023/06/11 08:45:36;;;;;;;7.28;5.07;;;30.70;54.40;;;;;;4996434;28;89550;-80
2023/06/11 08:48:03;;;;;;;6.63;5.47;;;30.90;55.00;;;;;;4997757;28;89357;-80
2023/06/11 08:50:31;;;;;;;5.30;4.78;;;31.10;53.20;;;;;;4996060;28;88113;-80
2023/06/11 08:53:00;;;;;;;7.13;4.90;;;31.30;54.30;;;;;;4997734;28;87598;-80
2023/06/11 08:55:27;;;;;;;4.40;3.97;;;31.50;53.70;;;;;;4997545;28;89302;-80
2023/06/11 08:57:53;;;;;;;5.60;4.82;;;31.70;53.30;;;;;;4979769;28;91659;-80
2023/06/11 09:00:19;;;;;;;6.78;4.82;;;32.00;52.90;;;;;;4997904;28;87574;-80
2023/06/11 09:02:45;;;;;;;6.82;4.90;;;32.20;51.50;;;;;;4953907;28;90545;-80
2023/06/11 09:05:11;;;;;;;5.45;4.95;;;32.30;51.30;;;;;;4997400;28;88814;-80
2023/06/11 09:07:37;;;;;;;7.13;4.72;;;32.40;52.10;;;;;;4997459;28;88718;-80
2023/06/11 09:10:04;;;;;;;5.88;4.88;;;32.50;53.40;;;;;;4996931;28;88614;-80
2023/06/11 09:12:29;;;;;;;5.95;4.53;;;32.60;50.30;;;;;;4995148;28;89378;-80
2023/06/11 09:14:56;;;;;;;5.20;4.47;;;32.70;51.70;;;;;;4996487;28;89377;-79
2023/06/11 09:17:22;;;;;;;5.15;4.68;;;32.80;51.70;;;;;;4996659;28;87759;-80
2023/06/11 09:19:48;;;;;;;7.00;4.95;;;33.00;51.60;;;;;;4987105;28;87906;-80
2023/06/11 09:22:14;;;;;;;5.35;4.50;;;33.10;49.50;;;;;;4997144;28;87465;-80
2023/06/11 09:24:40;;;;;;;4.63;4.22;;;33.10;50.90;;;;;;4997118;28;89285;-80
2023/06/11 09:27:06;;;;;;;5.22;4.57;;;33.20;51.30;;;;;;4997546;28;88505;-80
2023/06/11 09:29:34;;;;;;;4.45;4.10;;;33.40;50.30;;;;;;4997548;28;87505;-79
2023/06/11 09:32:07;;;;;;;6.65;4.28;;;33.50;50.50;;;;;;4997164;28;88055;-80
2023/06/11 09:34:33;;;;;;;9.38;4.68;;;33.90;48.70;;;;;;4996541;28;89553;-80
2023/06/11 09:37:00;;;;;;;7.03;4.35;;;33.80;46.70;;;;;;4995626;28;91248;-80
2023/06/11 09:39:27;;;;;;;5.22;4.50;;;33.60;49.00;;;;;;4995568;28;87546;-80
2023/06/11 09:41:53;;;;;;;4.75;4.30;;;33.90;49.20;;;;;;4996831;28;87987;-80
2023/06/11 09:44:19;;;;;;;6.22;4.28;;;34.20;49.40;;;;;;4996859;28;89151;-80
2023/06/11 09:46:47;;;;;;;8.43;4.53;;;34.60;49.50;;;;;;4996126;28;88713;-80
2023/06/11 09:49:15;;;;;;;5.13;4.03;;;34.80;47.80;;;;;;4996870;28;87680;-79
2023/06/11 09:51:41;;;;;;;4.30;3.88;;;34.90;47.40;;;;;;4996898;28;86960;-80
2023/06/11 09:54:08;;;;;;;5.13;4.50;;;34.90;45.70;;;;;;4996332;28;88451;-80
2023/06/11 09:56:35;;;;;;;8.18;4.53;;;34.90;46.60;;;;;;4996673;28;88371;-80
2023/06/11 09:59:02;;;;;;;5.30;3.92;;;34.90;46.60;;;;;;4996298;28;88006;-80
2023/06/11 10:01:29;;;;;;;5.68;3.90;;;35.10;47.70;;;;;;4996669;28;87731;-80
2023/06/11 10:03:59;;;;;;;5.88;4.28;;;35.40;46.40;;;;;;4995874;28;88267;-80
2023/06/11 10:06:29;;;;;;;4.30;3.90;;;35.50;46.70;;;;;;4996507;28;88002;-81
2023/06/11 10:08:59;;;;;;;7.53;3.80;;;35.80;45.40;;;;;;4996848;28;87688;-80
2023/06/11 10:11:28;;;;;;;4.40;4.00;;;35.80;45.20;;;;;;4970346;28;90881;-80
2023/06/11 10:14:01;;;;;;;4.40;4.00;;;35.90;45.50;;;;;;4995658;28;89494;-80
2023/06/11 10:16:27;;;;;;;4.38;3.80;;;36.10;44.10;;;;;;4978966;28;90184;-80
2023/06/11 10:19:05;;;;;;;4.38;3.97;;;36.20;44.40;;;;;;4996909;28;87571;-80
2023/06/11 10:21:50;;;;;;;5.95;3.72;;;36.30;44.80;;;;;;4978295;28;89121;-81
2023/06/11 10:24:26;;;;;;;4.25;3.80;;;36.50;44.70;;;;;;4994994;28;89649;-80
2023/06/11 10:27:07;;;;;;;3.13;2.92;;;36.60;44.50;;;;;;4995817;28;92522;-80
2023/06/11 10:29:51;;;;;;;2.75;2.55;;;36.60;43.40;;;;;;4970276;28;87747;-80
2023/06/11 10:32:22;;;;;;;3.05;2.75;;;36.50;42.50;;;;;;4996305;28;88340;-79
2023/06/11 10:34:53;;;;;;;3.30;3.00;;;36.60;42.50;;;;;;4977790;28;90192;-82
2023/06/11 10:37:29;;;;;;;4.07;3.40;;;36.90;42.80;;;;;;4995864;28;88182;-81
2023/06/11 10:39:54;;;;;;;8.45;3.83;;;37.30;43.30;;;;;;4969923;28;87286;-82
2023/06/11 10:42:28;;;;;;;4.30;3.38;;;37.40;41.90;;;;;;4997104;28;87251;-81
2023/06/11 10:44:58;;;;;;;3.97;3.63;;;37.30;42.70;;;;;;4996232;28;88592;-84
2023/06/11 10:47:24;;;;;;;7.10;3.78;;;37.40;42.50;;;;;;4995919;28;88090;-82
2023/06/11 10:49:50;;;;;;;4.93;3.53;;;37.40;41.80;;;;;;4995925;28;88672;-83
2023/06/11 10:52:15;;;;;;;4.75;3.20;;;37.40;41.90;;;;;;4994469;28;88720;-82
2023/06/11 10:54:43;;;;;;;3.35;3.10;;;37.40;41.50;;;;;;4994610;28;91670;-81
2023/06/11 10:57:08;;;;;;;4.90;2.28;;;37.60;41.60;;;;;;4987386;28;90741;-81
2023/06/11 10:59:34;;;;;;;3.70;2.50;;;37.70;39.40;;;;;;4996558;28;87794;-81
2023/06/11 11:02:00;;;;;;;2.78;2.58;;;38.00;41.70;;;;;;4996141;28;87774;-81
2023/06/11 11:04:26;;;;;;;2.92;2.50;;;38.30;40.60;;;;;;4968938;28;90343;-81
2023/06/11 11:07:08;;;;;;;3.30;2.88;;;38.20;40.20;;;;;;4995652;28;87958;-81
2023/06/11 11:09:33;;;;;;;3.92;3.53;;;38.20;39.40;;;;;;4994576;28;88219;-81
2023/06/11 11:11:59;;;;;;;8.55;3.33;;;38.20;40.20;;;;;;4995285;28;87643;-81
2023/06/11 11:14:27;;;;;;;3.30;3.00;;;38.50;39.70;;;;;;4994919;28;89782;-83
2023/06/11 11:16:53;;;;;;;3.15;2.95;;;38.70;39.90;;;;;;4994239;28;92463;-81
2023/06/11 11:19:25;;;;;;;4.00;3.00;;;38.90;39.10;;;;;;4996060;28;87614;-79
2023/06/11 11:21:51;;;;;;;3.90;3.17;;;39.10;39.00;;;;;;4995769;28;88353;-82
2023/06/11 11:24:18;;;;;;;2.90;2.60;;;39.30;39.30;;;;;;4995222;28;89649;-80
2023/06/11 11:26:44;;;;;;;3.40;3.10;;;39.30;39.30;;;;;;4995591;28;87580;-80
2023/06/11 11:29:10;;;;;;;3.47;3.10;;;39.30;38.00;;;;;;4995748;28;87818;-83
2023/06/11 11:31:37;;;;;;;4.10;3.10;;;39.10;39.40;;;;;;4969763;28;89121;-82
2023/06/11 11:34:02;;;;;;;3.53;3.22;;;38.90;39.80;;;;;;4996786;28;87927;-81
2023/06/11 11:36:28;;;;;;;3.20;2.90;;;38.90;39.10;;;;;;4998977;28;87968;-81
2023/06/11 11:38:54;;;;;;;3.50;3.20;;;39.20;40.20;;;;;;4998925;28;88249;-82
2023/06/11 11:41:23;;;;;;;5.70;3.78;;;39.70;39.20;;;;;;4999194;28;87590;-82
2023/06/11 11:43:50;;;;;;;5.95;3.03;;;39.70;36.90;;;;;;4980430;28;90230;-82
2023/06/11 11:46:17;;;;;;;3.30;3.00;;;39.70;39.00;;;;;;4999143;28;88757;-82
2023/06/11 11:48:43;;;;;;;4.53;2.80;;;39.80;37.40;;;;;;4998991;28;87339;-82
2023/06/11 11:51:11;;;;;;;7.93;3.72;;;39.90;37.50;;;;;;4979807;28;90629;-81
2023/06/11 11:53:37;;;;;;;4.90;3.05;;;40.10;37.80;;;;;;4998099;28;88194;-82
2023/06/11 11:56:04;;;;;;;3.58;3.28;;;40.30;37.70;;;;;;4974579;28;90994;-81
2023/06/11 11:58:41;;;;;;;3.58;3.08;;;40.30;33.50;;;;;;4999199;28;87683;-82
2023/06/11 12:01:15;;;;;;;3.58;3.20;;;39.90;37.20;;;;;;4998189;28;88225;-82
2023/06/11 12:03:40;;;;;;;3.55;3.05;;;40.10;35.70;;;;;;4979069;28;91575;-80
2023/06/11 12:06:08;;;;;;;3.15;2.85;;;40.40;37.20;;;;;;4998022;28;88862;-84
2023/06/11 12:08:35;;;;;;;3.78;3.20;;;40.80;37.70;;;;;;4996507;28;87430;-83
2023/06/11 12:11:03;;;;;;;3.20;2.90;;;40.90;36.70;;;;;;4997892;28;87935;-84
2023/06/11 12:13:29;;;;;;;4.35;3.50;;;41.00;35.60;;;;;;4979754;28;91396;-83
2023/06/11 12:15:55;;;;;;;3.38;2.80;;;40.80;35.10;;;;;;4996517;28;91166;-82
2023/06/11 12:18:21;;;;;;;2.90;2.67;;;40.80;36.10;;;;;;4997474;28;87448;-81
2023/06/11 12:20:47;;;;;;;4.00;2.72;;;40.90;35.50;;;;;;4997997;28;87289;-81
2023/06/11 12:23:13;;;;;;;5.07;2.92;;;40.50;34.80;;;;;;4997184;28;88227;-82
2023/06/11 12:25:39;;;;;;;5.40;2.80;;;39.70;35.40;;;;;;4997384;28;88134;-81
2023/06/11 12:28:05;;;;;;;4.13;2.60;;;39.30;35.30;;;;;;4996710;28;89022;-80
2023/06/11 12:30:33;;;;;;;4.47;2.78;;;39.10;36.70;;;;;;4985472;28;90152;-81
2023/06/11 12:32:59;;;;;;;6.45;2.67;;;39.40;37.40;;;;;;4969305;28;90115;-80
2023/06/11 12:35:27;;;;;;;2.90;2.70;;;39.70;36.40;;;;;;4995954;28;90323;-80
2023/06/11 12:37:52;;;;;;;3.17;2.90;;;39.90;36.00;;;;;;4996823;28;87561;-80
2023/06/11 12:40:18;;;;;;;4.22;2.55;;;40.00;36.10;;;;;;4995565;28;90534;-81